Time;durP1;ratioP1;P1;durP2;ratioP2;P2;SDS_P1;SDS_P2;PMS_P1;PMS_P2;Temp;Humidity;BMP_temperature;BMP_pressure;BME280_temperature;BME280_humidity;BME280_pressure;Samples;Min_cycle;Max_cycle;Signal;HPM_P1;HPM_P2
2021/03/27 00:02:14;;;;;;;7.32;5.40;;;11.40;68.30;;;;;;5020297;28;20029;-76
2021/03/27 00:04:44;;;;;;;8.18;5.38;;;11.40;69.80;;;;;;5051829;28;20192;-77
2021/03/27 00:07:24;;;;;;;7.53;5.63;;;11.20;71.10;;;;;;5053680;28;20029;-76
2021/03/27 00:09:56;;;;;;;10.52;6.90;;;11.00;72.10;;;;;;5031151;28;20025;-77
2021/03/27 00:12:29;;;;;;;6.22;4.82;;;10.90;72.90;;;;;;5018552;28;20499;-77
2021/03/27 00:15:00;;;;;;;5.38;3.63;;;11.00;72.90;;;;;;5047920;28;20033;-77
2021/03/27 00:17:40;;;;;;;6.60;3.92;;;10.90;72.80;;;;;;5016803;28;20037;-77
2021/03/27 00:20:32;;;;;;;4.65;3.67;;;10.90;73.10;;;;;;5024491;28;20030;-77
2021/03/27 00:23:07;;;;;;;7.65;3.85;;;10.80;72.80;;;;;;5047588;28;20074;-77
2021/03/27 00:25:34;;;;;;;7.10;4.20;;;10.80;73.10;;;;;;5029417;28;20060;-77
2021/03/27 00:28:03;;;;;;;5.22;4.05;;;10.70;72.90;;;;;;5037504;28;20032;-76
2021/03/27 00:30:41;;;;;;;5.78;4.30;;;10.70;72.70;;;;;;5040655;28;20044;-77
2021/03/27 00:33:07;;;;;;;3.75;2.85;;;10.50;72.90;;;;;;5039867;28;20048;-77
2021/03/27 00:35:36;;;;;;;6.40;2.58;;;10.50;73.30;;;;;;5056328;28;20085;-77
2021/03/27 00:38:12;;;;;;;3.58;3.03;;;10.40;73.70;;;;;;5025450;28;20393;-77
2021/03/27 00:40:46;;;;;;;5.32;4.82;;;10.40;74.50;;;;;;5058015;28;20032;-78
2021/03/27 00:43:21;;;;;;;3.88;3.38;;;10.10;76.10;;;;;;5023465;28;20043;-78
2021/03/27 00:45:57;;;;;;;4.50;3.20;;;10.10;77.70;;;;;;5050710;28;20029;-78
2021/03/27 00:48:46;;;;;;;4.22;3.70;;;10.10;79.00;;;;;;5019642;28;20044;-79
2021/03/27 00:51:29;;;;;;;2.92;2.15;;;9.90;81.20;;;;;;5057414;28;20117;-79
2021/03/27 00:54:03;;;;;;;2.78;2.40;;;9.70;82.80;;;;;;5057832;28;20047;-79
2021/03/27 00:56:31;;;;;;;6.22;3.63;;;9.60;82.70;;;;;;5063028;28;20035;-79
2021/03/27 00:59:05;;;;;;;4.93;2.65;;;9.30;81.90;;;;;;5017392;28;20514;-79
2021/03/27 01:01:36;;;;;;;3.92;2.95;;;9.10;83.30;;;;;;5019277;28;20523;-79
2021/03/27 01:04:02;;;;;;;4.22;3.03;;;9.00;83.30;;;;;;5024162;28;20505;-79
2021/03/27 01:06:52;;;;;;;3.40;2.75;;;8.80;83.40;;;;;;5065210;28;20111;-79
2021/03/27 01:09:22;;;;;;;2.35;1.75;;;8.70;84.20;;;;;;5047923;28;20041;-79
2021/03/27 01:11:56;;;;;;;2.88;1.85;;;8.70;85.20;;;;;;5032751;28;20431;-79
2021/03/27 01:14:26;;;;;;;3.78;2.03;;;8.80;85.30;;;;;;5028810;28;20036;-80
2021/03/27 01:16:58;;;;;;;6.40;4.25;;;8.80;85.60;;;;;;5029212;28;20078;-79
2021/03/27 01:19:37;;;;;;;4.90;4.10;;;8.50;84.80;;;;;;5036170;28;20071;-79
2021/03/27 01:22:05;;;;;;;7.38;4.57;;;8.20;86.60;;;;;;5032242;28;20037;-80
2021/03/27 01:24:31;;;;;;;5.85;3.05;;;8.30;87.20;;;;;;5038645;28;20035;-79
2021/03/27 01:27:02;;;;;;;6.03;5.20;;;8.40;87.20;;;;;;5025283;28;20037;-80
2021/03/27 01:29:29;;;;;;;9.82;7.20;;;8.30;86.10;;;;;;5019789;28;20052;-79
2021/03/27 01:32:08;;;;;;;6.70;4.80;;;8.30;88.20;;;;;;5041502;28;20041;-79
2021/03/27 01:34:43;;;;;;;11.25;7.00;;;8.20;87.90;;;;;;5028649;28;20043;-79
2021/03/27 01:37:20;;;;;;;8.27;6.07;;;8.10;87.70;;;;;;5039072;28;20389;-80
2021/03/27 01:40:18;;;;;;;11.23;7.00;;;8.10;88.00;;;;;;5042390;28;20093;-80
2021/03/27 01:42:59;;;;;;;6.28;4.07;;;8.00;88.00;;;;;;5011347;28;20086;-79
2021/03/27 01:45:56;;;;;;;8.20;5.07;;;8.10;88.50;;;;;;5054629;28;20047;-79
2021/03/27 01:48:29;;;;;;;6.50;3.15;;;7.80;88.90;;;;;;5042357;28;20036;-79
2021/03/27 01:50:59;;;;;;;10.40;4.65;;;7.70;88.90;;;;;;5047637;28;20044;-80
2021/03/27 01:53:35;;;;;;;4.70;3.22;;;7.70;88.80;;;;;;5026327;28;20041;-80
2021/03/27 01:56:06;;;;;;;;;;;7.80;89.10;;;;;;5026343;28;20511;-80
2021/03/27 01:58:37;;;;;;;3.55;2.47;;;7.80;88.70;;;;;;5056337;28;19987;-79
2021/03/27 02:01:07;;;;;;;7.75;3.58;;;7.70;88.50;;;;;;5023493;28;20492;-79
2021/03/27 02:03:45;;;;;;;7.13;4.60;;;7.60;89.20;;;;;;5042769;28;20442;-79
2021/03/27 02:06:20;;;;;;;3.13;2.17;;;7.40;88.80;;;;;;5060984;28;20032;-79
2021/03/27 02:08:58;;;;;;;5.55;2.75;;;7.50;89.20;;;;;;5042054;28;20051;-79
2021/03/27 02:11:30;;;;;;;4.72;3.05;;;7.60;88.80;;;;;;5036266;28;20286;-79
2021/03/27 02:14:22;;;;;;;5.15;2.10;;;7.50;89.70;;;;;;5043362;28;20547;-79
2021/03/27 02:16:51;;;;;;;3.83;2.47;;;7.50;89.60;;;;;;5023853;28;20440;-79
2021/03/27 02:19:44;;;;;;;5.35;2.10;;;7.40;89.90;;;;;;5033346;28;20111;-79
2021/03/27 02:22:10;;;;;;;4.75;3.13;;;7.40;90.30;;;;;;5054373;28;20039;-79
2021/03/27 02:25:05;;;;;;;4.22;2.03;;;7.30;90.60;;;;;;5059838;28;20029;-79
2021/03/27 02:28:03;;;;;;;9.23;1.83;;;7.30;90.60;;;;;;5050190;28;20033;-79
2021/03/27 02:30:44;;;;;;;3.97;2.15;;;7.30;90.50;;;;;;5038731;28;20421;-78
2021/03/27 02:33:27;;;;;;;7.72;2.00;;;7.20;90.50;;;;;;5017720;28;20037;-79
2021/03/27 02:36:26;;;;;;;5.78;1.88;;;7.10;90.80;;;;;;5032425;28;20033;-78
2021/03/27 02:39:00;;;;;;;3.03;1.23;;;7.10;90.90;;;;;;5055047;28;20032;-78
2021/03/27 02:41:46;;;;;;;7.63;1.65;;;7.10;90.90;;;;;;5032685;28;20492;-78
2021/03/27 02:44:16;;;;;;;8.10;1.80;;;7.10;90.80;;;;;;5038429;28;20040;-78
2021/03/27 02:46:46;;;;;;;2.88;1.05;;;7.20;90.70;;;;;;5044481;28;20376;-78
2021/03/27 02:49:21;;;;;;;4.35;1.50;;;7.10;91.00;;;;;;5049742;28;20416;-77
2021/03/27 02:51:59;;;;;;;6.50;1.65;;;7.00;91.30;;;;;;5051450;28;20033;-78
2021/03/27 02:54:40;;;;;;;2.28;1.08;;;7.00;91.20;;;;;;5059036;28;20033;-77
2021/03/27 02:57:43;;;;;;;2.30;0.88;;;6.90;91.20;;;;;;5047405;28;20033;-78
2021/03/27 03:00:32;;;;;;;5.22;1.63;;;6.90;91.50;;;;;;5025596;28;20072;-78
2021/03/27 03:03:00;;;;;;;1.63;0.70;;;6.90;91.50;;;;;;5040030;28;20525;-78
2021/03/27 03:05:53;;;;;;;2.60;1.27;;;6.90;91.40;;;;;;5026812;28;20029;-78
2021/03/27 03:08:23;;;;;;;3.63;0.55;;;6.90;91.30;;;;;;5051822;28;20029;-78
2021/03/27 03:10:58;;;;;;;5.78;1.10;;;6.90;91.60;;;;;;5049468;28;20029;-78
2021/03/27 03:13:35;;;;;;;1.42;0.88;;;6.90;91.60;;;;;;5034355;28;20484;-78
2021/03/27 03:16:09;;;;;;;1.10;0.90;;;6.80;92.00;;;;;;5048575;28;20120;-78
2021/03/27 03:18:50;;;;;;;9.13;1.88;;;6.80;92.00;;;;;;5040003;28;20397;-78
2021/03/27 03:21:48;;;;;;;4.13;1.52;;;6.80;91.90;;;;;;5060903;28;20033;-78
2021/03/27 03:24:33;;;;;;;1.70;1.33;;;6.90;92.00;;;;;;5039850;28;20491;-78
2021/03/27 03:27:20;;;;;;;2.88;1.55;;;6.70;92.00;;;;;;5052199;28;20033;-78
2021/03/27 03:30:10;;;;;;;6.72;1.67;;;6.70;92.20;;;;;;5063728;28;20049;-77
2021/03/27 03:33:01;;;;;;;1.83;1.00;;;6.60;92.40;;;;;;5051253;28;20033;-78
2021/03/27 03:35:43;;;;;;;1.65;0.93;;;6.70;92.40;;;;;;5055949;28;20037;-78
2021/03/27 03:38:09;;;;;;;6.93;1.30;;;6.60;92.50;;;;;;5031794;28;20507;-77
2021/03/27 03:41:02;;;;;;;4.57;1.30;;;6.60;92.30;;;;;;5057897;28;20054;-78
2021/03/27 03:43:29;;;;;;;1.95;1.00;;;6.60;92.10;;;;;;5047937;28;20485;-78
2021/03/27 03:46:28;;;;;;;6.10;1.73;;;6.50;92.30;;;;;;5058732;28;20072;-78
2021/03/27 03:49:27;;;;;;;2.53;0.98;;;6.40;92.40;;;;;;5049653;28;20037;-77
2021/03/27 03:52:19;;;;;;;1.90;0.88;;;6.40;92.50;;;;;;5046088;28;20547;-78
2021/03/27 03:54:56;;;;;;;3.85;1.15;;;6.40;92.30;;;;;;5040144;28;20032;-78
2021/03/27 03:57:30;;;;;;;5.75;1.60;;;6.50;92.30;;;;;;5061322;28;20107;-77
2021/03/27 03:59:57;;;;;;;1.52;0.65;;;6.40;92.30;;;;;;5045620;28;20485;-77
2021/03/27 04:02:28;;;;;;;2.15;0.80;;;6.40;92.20;;;;;;5064236;28;20384;-77
2021/03/27 04:05:00;;;;;;;3.17;2.40;;;6.30;92.10;;;;;;5027899;28;20081;-77
2021/03/27 04:07:36;;;;;;;1.58;1.00;;;6.30;92.20;;;;;;5056986;28;20488;-77
2021/03/27 04:10:10;;;;;;;2.95;0.77;;;6.30;92.20;;;;;;5043480;28;20125;-77
2021/03/27 04:13:08;;;;;;;2.33;1.15;;;6.30;92.30;;;;;;5053964;28;20112;-77
2021/03/27 04:15:52;;;;;;;10.60;2.03;;;6.20;92.30;;;;;;5029743;28;20182;-77
2021/03/27 04:18:20;;;;;;;2.80;1.08;;;6.20;92.50;;;;;;5057019;28;20060;-77
2021/03/27 04:20:53;;;;;;;3.05;1.65;;;6.10;92.50;;;;;;5058605;28;20077;-77
2021/03/27 04:23:33;;;;;;;8.18;3.78;;;6.30;92.40;;;;;;5041432;28;20025;-77
2021/03/27 04:26:11;;;;;;;6.85;2.28;;;6.20;92.50;;;;;;5034508;28;20037;-77
2021/03/27 04:28:44;;;;;;;2.15;1.10;;;6.20;92.40;;;;;;5068684;28;20420;-77
2021/03/27 04:31:28;;;;;;;7.00;2.97;;;6.20;92.40;;;;;;5056615;28;20040;-77
2021/03/27 04:34:14;;;;;;;8.27;1.85;;;6.20;92.50;;;;;;5049846;28;20503;-77
2021/03/27 04:36:42;;;;;;;5.57;2.08;;;6.10;92.20;;;;;;5064717;28;20056;-77
2021/03/27 04:39:38;;;;;;;2.25;1.52;;;6.20;92.30;;;;;;5041472;28;20032;-77
2021/03/27 04:42:11;;;;;;;5.97;2.45;;;6.10;92.50;;;;;;5053161;28;20496;-76
2021/03/27 04:45:09;;;;;;;1.77;1.08;;;6.20;92.40;;;;;;5044888;28;20556;-77
2021/03/27 04:47:43;;;;;;;6.88;1.83;;;6.10;92.40;;;;;;5054259;28;20062;-77
2021/03/27 04:50:14;;;;;;;7.72;2.30;;;6.20;92.30;;;;;;5040621;28;20028;-77
2021/03/27 04:53:17;;;;;;;5.53;2.22;;;6.10;92.00;;;;;;5063837;28;20104;-77
2021/03/27 04:55:57;;;;;;;5.07;1.55;;;6.00;92.50;;;;;;5041326;28;20024;-77
2021/03/27 04:58:38;;;;;;;5.53;1.42;;;6.00;92.60;;;;;;5059703;28;20561;-77
2021/03/27 05:01:20;;;;;;;6.65;2.58;;;6.10;92.30;;;;;;5030952;28;20036;-77
2021/03/27 05:04:09;;;;;;;3.72;1.90;;;6.00;92.60;;;;;;5057522;28;21943;-77
2021/03/27 05:06:39;;;;;;;3.50;1.48;;;5.90;92.70;;;;;;5045286;28;20506;-77
2021/03/27 05:09:28;;;;;;;8.20;2.50;;;5.90;92.90;;;;;;5025853;28;20289;-77
2021/03/27 05:12:14;;;;;;;9.30;2.75;;;5.90;92.80;;;;;;5057359;28;20439;-77
2021/03/27 05:15:20;;;;;;;6.70;1.67;;;6.00;92.80;;;;;;5052687;28;20029;-77
2021/03/27 05:17:45;;;;;;;9.75;2.40;;;6.00;92.80;;;;;;5052165;28;20027;-77
2021/03/27 05:20:16;;;;;;;6.40;1.98;;;5.90;92.90;;;;;;5058908;28;20029;-76
2021/03/27 05:22:50;;;;;;;5.00;1.92;;;5.90;92.90;;;;;;5051510;28;20086;-77
2021/03/27 05:25:32;;;;;;;4.85;1.42;;;6.00;92.90;;;;;;5070414;28;20110;-76
2021/03/27 05:28:16;;;;;;;4.70;1.23;;;6.10;92.70;;;;;;5048507;28;20174;-77
2021/03/27 05:31:21;;;;;;;9.50;1.55;;;6.10;92.80;;;;;;5054535;28;20548;-76
2021/03/27 05:34:06;;;;;;;12.02;2.00;;;6.00;92.80;;;;;;5064742;28;20439;-77
2021/03/27 05:36:44;;;;;;;5.00;1.03;;;6.00;92.80;;;;;;5026953;28;20035;-77
2021/03/27 05:39:32;;;;;;;6.00;2.50;;;6.10;92.60;;;;;;5057721;28;20086;-77
2021/03/27 05:42:19;;;;;;;3.53;1.65;;;6.10;92.50;;;;;;5054327;28;20040;-77
2021/03/27 05:45:12;;;;;;;5.95;1.92;;;6.10;92.50;;;;;;5042542;28;20028;-77
2021/03/27 05:47:44;;;;;;;6.22;1.83;;;6.10;92.60;;;;;;5054412;28;20477;-77
2021/03/27 05:50:32;;;;;;;9.27;1.75;;;6.10;92.50;;;;;;4356453;28;10000703;-76
2021/03/27 05:53:40;;;;;;;2.03;1.65;;;6.10;92.50;;;;;;5038841;28;20500;-76
2021/03/27 05:56:48;;;;;;;4.68;1.52;;;6.10;92.40;;;;;;5022022;28;20040;-77
2021/03/27 05:59:39;;;;;;;10.93;2.83;;;6.10;92.30;;;;;;5040481;28;20044;-77
2021/03/27 06:02:25;;;;;;;3.70;1.20;;;6.10;92.40;;;;;;5034791;28;20037;-77
2021/03/27 06:05:22;;;;;;;2.70;1.13;;;6.20;92.30;;;;;;5036273;28;20039;-77
2021/03/27 06:08:12;;;;;;;6.88;1.77;;;6.20;92.20;;;;;;5044397;28;20501;-77
2021/03/27 06:10:52;;;;;;;10.00;2.20;;;6.20;92.30;;;;;;5043380;28;20037;-77
2021/03/27 06:13:37;;;;;;;4.45;2.00;;;6.20;92.40;;;;;;5045318;28;20151;-77
2021/03/27 06:16:34;;;;;;;6.88;1.48;;;6.20;92.30;;;;;;5054760;28;20065;-77
2021/03/27 06:19:34;;;;;;;1.55;1.02;;;6.20;92.40;;;;;;5027816;28;20513;-78
2021/03/27 06:22:09;;;;;;;8.88;1.92;;;6.20;92.40;;;;;;5033716;28;20508;-76
2021/03/27 06:25:08;;;;;;;9.80;2.17;;;6.20;92.60;;;;;;5047285;28;20033;-76
2021/03/27 06:27:58;;;;;;;4.72;1.83;;;6.20;92.60;;;;;;5053195;28;20102;-77
2021/03/27 06:30:45;;;;;;;6.75;2.03;;;6.20;92.40;;;;;;5046823;28;20036;-76
2021/03/27 06:33:26;;;;;;;3.33;1.65;;;6.30;92.40;;;;;;5054577;28;20033;-77
2021/03/27 06:35:51;;;;;;;3.70;1.25;;;6.30;92.40;;;;;;5056830;28;20032;-77
2021/03/27 06:38:48;;;;;;;12.90;2.63;;;6.30;92.50;;;;;;5057383;28;20043;-77
2021/03/27 06:41:31;;;;;;;9.20;1.38;;;6.40;92.40;;;;;;5052590;28;20048;-77
2021/03/27 06:44:11;;;;;;;9.07;1.38;;;6.40;92.20;;;;;;5029222;28;20030;-77
2021/03/27 06:46:51;;;;;;;7.32;1.42;;;6.50;92.30;;;;;;5056733;28;20033;-77
2021/03/27 06:49:42;;;;;;;5.60;2.40;;;6.50;92.20;;;;;;5052084;28;20036;-76
2021/03/27 06:52:29;;;;;;;9.13;2.00;;;6.60;91.90;;;;;;5030831;28;20545;-77
2021/03/27 06:55:23;;;;;;;5.30;1.65;;;6.60;92.10;;;;;;5049397;28;20112;-77
2021/03/27 06:58:10;;;;;;;6.18;1.65;;;6.70;91.90;;;;;;5057069;28;20098;-77
2021/03/27 07:00:43;;;;;;;3.03;1.00;;;6.80;91.80;;;;;;5041958;28;20029;-76
2021/03/27 07:03:33;;;;;;;6.47;1.65;;;6.90;91.70;;;;;;5038912;28;20033;-77
2021/03/27 07:06:32;;;;;;;6.22;2.10;;;6.90;91.90;;;;;;5048604;28;20656;-77
2021/03/27 07:09:22;;;;;;;9.90;2.40;;;6.80;92.00;;;;;;5052336;28;20112;-78
2021/03/27 07:12:27;;;;;;;7.18;2.95;;;6.70;92.30;;;;;;5057165;28;20028;-78
2021/03/27 07:15:17;;;;;;;2.75;1.42;;;6.70;92.30;;;;;;5053130;28;20029;-78
2021/03/27 07:17:47;;;;;;;6.13;1.60;;;6.70;92.70;;;;;;5058753;28;20325;-78
2021/03/27 07:20:55;;;;;;;2.53;1.45;;;6.60;92.50;;;;;;5018371;28;20126;-79
2021/03/27 07:23:54;;;;;;;6.18;1.92;;;6.50;92.90;;;;;;5038491;28;20043;-78
2021/03/27 07:26:29;;;;;;;3.53;1.02;;;6.40;93.00;;;;;;5052330;28;20034;-78
2021/03/27 07:29:31;;;;;;;5.55;1.83;;;6.40;93.20;;;;;;5052235;28;20448;-77
2021/03/27 07:32:38;;;;;;;3.53;1.42;;;6.30;93.20;;;;;;5056960;28;20033;-78
2021/03/27 07:35:03;;;;;;;;;;;6.40;93.00;;;;;;5014351;28;20032;-78
2021/03/27 07:37:42;;;;;;;3.17;1.73;;;6.20;93.20;;;;;;5055028;28;19908;-78
2021/03/27 07:40:14;;;;;;;5.22;1.02;;;6.10;93.10;;;;;;5018453;28;20082;-78
2021/03/27 07:42:46;;;;;;;4.05;0.93;;;6.10;92.90;;;;;;5051400;28;20040;-78
2021/03/27 07:45:26;;;;;;;1.75;0.82;;;5.80;92.80;;;;;;5047585;28;20032;-78
2021/03/27 07:48:16;;;;;;;2.65;0.40;;;5.70;92.90;;;;;;5024894;28;20566;-78
2021/03/27 07:50:49;;;;;;;3.00;0.90;;;5.70;92.90;;;;;;5040027;28;20040;-79
2021/03/27 07:53:27;;;;;;;2.00;0.88;;;5.70;92.70;;;;;;5040411;28;20485;-78
2021/03/27 07:56:17;;;;;;;10.02;0.85;;;5.50;92.80;;;;;;5056311;28;20083;-78
2021/03/27 07:59:11;;;;;;;0.85;0.40;;;5.50;92.70;;;;;;5030537;28;20078;-78
2021/03/27 08:01:55;;;;;;;1.65;0.57;;;5.50;92.80;;;;;;5058104;28;20032;-80
2021/03/27 08:04:32;;;;;;;6.90;1.17;;;5.40;92.80;;;;;;5021179;28;20052;-78
2021/03/27 08:07:18;;;;;;;6.60;1.25;;;5.30;92.80;;;;;;5060678;28;20060;-79
2021/03/27 08:10:02;;;;;;;2.63;0.73;;;5.30;92.80;;;;;;5050846;28;20052;-78
2021/03/27 08:12:51;;;;;;;6.32;0.88;;;5.30;92.90;;;;;;5054866;28;20039;-79
2021/03/27 08:15:30;;;;;;;2.50;0.65;;;5.30;92.60;;;;;;5063088;28;20040;-78
2021/03/27 08:18:03;;;;;;;5.88;1.42;;;5.30;92.60;;;;;;5043381;28;20036;-78
2021/03/27 08:20:38;;;;;;;2.75;1.05;;;5.30;92.50;;;;;;5024172;28;20028;-78
2021/03/27 08:23:06;;;;;;;2.92;1.35;;;5.10;92.60;;;;;;5054104;28;20041;-78
2021/03/27 08:26:02;;;;;;;3.65;1.95;;;5.20;92.60;;;;;;5029231;28;20139;-78
2021/03/27 08:28:55;;;;;;;2.15;0.60;;;5.10;92.60;;;;;;5039742;28;20055;-78
2021/03/27 08:31:56;;;;;;;3.60;0.82;;;5.20;92.40;;;;;;5051124;28;20179;-78
2021/03/27 08:34:59;;;;;;;4.43;1.20;;;5.10;92.40;;;;;;5046814;28;20498;-78
2021/03/27 08:37:46;;;;;;;1.23;0.80;;;5.10;92.50;;;;;;5055447;28;20031;-78
2021/03/27 08:40:26;;;;;;;3.53;1.02;;;5.10;92.50;;;;;;5052306;28;20093;-79
2021/03/27 08:43:20;;;;;;;5.35;1.25;;;5.20;92.40;;;;;;5016685;28;20066;-79
2021/03/27 08:46:19;;;;;;;2.25;1.33;;;5.20;92.40;;;;;;5044216;28;20093;-81
2021/03/27 08:48:59;;;;;;;2.22;0.57;;;5.30;92.50;;;;;;5033477;28;20116;-80
2021/03/27 08:51:39;;;;;;;0.45;0.43;;;5.40;92.40;;;;;;5039015;28;20484;-80
2021/03/27 08:54:30;;;;;;;9.52;1.40;;;5.50;92.50;;;;;;5031273;28;20059;-80
2021/03/27 08:57:05;;;;;;;4.97;1.05;;;5.60;92.30;;;;;;5051641;28;20029;-79
2021/03/27 08:59:39;;;;;;;1.10;0.93;;;5.70;92.60;;;;;;5046778;28;20159;-79
2021/03/27 09:02:40;;;;;;;2.05;0.95;;;5.70;92.70;;;;;;5049679;28;20108;-79
2021/03/27 09:05:31;;;;;;;7.78;2.33;;;5.80;92.80;;;;;;5056147;28;20037;-82
2021/03/27 09:08:32;;;;;;;6.78;2.33;;;6.00;92.50;;;;;;5056815;28;20033;-79
2021/03/27 09:11:34;;;;;;;4.45;1.77;;;6.10;92.50;;;;;;5044299;28;20033;-79
2021/03/27 09:14:20;;;;;;;1.23;0.82;;;6.20;92.40;;;;;;5055988;28;20078;-79
2021/03/27 09:17:25;;;;;;;12.02;2.10;;;6.20;92.30;;;;;;5057003;28;20534;-79
2021/03/27 09:20:02;;;;;;;1.98;0.60;;;6.20;92.60;;;;;;5049949;28;20021;-79
2021/03/27 09:22:50;;;;;;;8.20;2.42;;;6.30;92.60;;;;;;5049218;28;20021;-79
2021/03/27 09:25:35;;;;;;;3.63;1.63;;;6.40;93.20;;;;;;5054681;28;20119;-79
2021/03/27 09:28:08;;;;;;;2.83;1.40;;;6.70;93.00;;;;;;5057333;28;20033;-79
2021/03/27 09:30:39;;;;;;;6.68;1.65;;;6.80;93.00;;;;;;5059142;28;20658;-79
2021/03/27 09:33:26;;;;;;;7.95;2.38;;;7.00;93.00;;;;;;5063260;28;20457;-79
2021/03/27 09:35:56;;;;;;;8.82;2.33;;;7.20;93.40;;;;;;5032895;28;20079;-79
2021/03/27 09:38:54;;;;;;;4.38;1.85;;;7.50;93.50;;;;;;5052254;28;20032;-78
2021/03/27 09:41:22;;;;;;;6.03;1.55;;;7.80;93.00;;;;;;5032080;28;20030;-78
2021/03/27 09:44:16;;;;;;;9.15;1.73;;;8.20;92.70;;;;;;5061793;28;20036;-78
2021/03/27 09:46:56;;;;;;;7.38;1.52;;;8.20;92.00;;;;;;5032129;28;20033;-78
2021/03/27 09:49:43;;;;;;;9.25;1.58;;;8.40;90.90;;;;;;5024295;28;20100;-79
2021/03/27 09:52:16;;;;;;;4.85;2.08;;;8.50;91.40;;;;;;5056340;28;20040;-77
2021/03/27 09:54:51;;;;;;;10.75;1.83;;;8.40;91.10;;;;;;5048924;28;20029;-78
2021/03/27 09:57:28;;;;;;;1.30;0.68;;;8.60;90.70;;;;;;5047800;28;20022;-77
2021/03/27 10:00:14;;;;;;;4.28;1.55;;;8.50;90.00;;;;;;5032381;28;20048;-78
2021/03/27 10:03:09;;;;;;;2.60;1.30;;;8.50;91.80;;;;;;5037767;28;20756;-77
2021/03/27 10:05:52;;;;;;;6.68;1.38;;;8.60;91.10;;;;;;5045752;28;20028;-78
2021/03/27 10:08:21;;;;;;;4.55;1.48;;;8.60;92.00;;;;;;5056304;28;20033;-77
2021/03/27 10:11:07;;;;;;;4.65;2.10;;;8.50;91.80;;;;;;5051347;28;20033;-78
2021/03/27 10:13:32;;;;;;;5.90;2.65;;;8.50;91.60;;;;;;5036874;28;20167;-77
2021/03/27 10:15:58;;;;;;;9.25;2.50;;;8.50;92.70;;;;;;5058569;28;20541;-77
2021/03/27 10:18:32;;;;;;;4.03;2.20;;;8.50;92.20;;;;;;5030278;28;20037;-78
2021/03/27 10:21:11;;;;;;;5.75;2.40;;;8.50;93.50;;;;;;5037148;28;20041;-77
2021/03/27 10:24:05;;;;;;;4.50;1.52;;;8.40;93.60;;;;;;5022812;28;20052;-77
2021/03/27 10:26:55;;;;;;;6.18;2.53;;;8.40;92.70;;;;;;4997526;28;20427;-77
2021/03/27 10:29:42;;;;;;;7.63;2.22;;;8.30;91.70;;;;;;5020681;28;20037;-78
2021/03/27 10:32:32;;;;;;;7.30;2.45;;;8.20;92.20;;;;;;5026387;28;20064;-78
2021/03/27 10:35:17;;;;;;;8.20;2.75;;;8.00;91.70;;;;;;5044434;28;20072;-78
2021/03/27 10:37:51;;;;;;;8.43;2.80;;;7.90;91.60;;;;;;5052887;28;20561;-78
2021/03/27 10:40:42;;;;;;;9.68;2.30;;;7.70;92.10;;;;;;5027552;28;20037;-79
2021/03/27 10:43:26;;;;;;;5.22;1.77;;;7.50;91.90;;;;;;5045262;28;20028;-78
2021/03/27 10:46:08;;;;;;;10.20;2.40;;;7.30;92.20;;;;;;5050816;28;20032;-78
2021/03/27 10:49:12;;;;;;;5.25;1.98;;;7.20;92.10;;;;;;5040462;28;20169;-78
2021/03/27 10:52:12;;;;;;;8.45;2.95;;;7.20;92.60;;;;;;5049713;28;20157;-78
2021/03/27 10:54:55;;;;;;;4.38;2.17;;;7.30;92.40;;;;;;4955042;28;20038;-78
2021/03/27 10:57:43;;;;;;;5.65;1.92;;;7.30;92.60;;;;;;5054025;28;20385;-78
2021/03/27 11:00:39;;;;;;;5.28;1.88;;;7.30;92.70;;;;;;5046576;28;20114;-78
2021/03/27 11:03:29;;;;;;;4.67;1.90;;;7.20;92.40;;;;;;5040747;28;20484;-78
2021/03/27 11:06:35;;;;;;;5.55;2.42;;;7.10;93.20;;;;;;5033448;28;20048;-79
2021/03/27 11:09:33;;;;;;;6.20;1.75;;;7.20;93.10;;;;;;5031215;28;20044;-78
2021/03/27 11:12:38;;;;;;;8.32;2.58;;;7.40;92.70;;;;;;5050344;28;20029;-79
2021/03/27 11:15:19;;;;;;;8.82;2.10;;;7.60;92.60;;;;;;5046698;28;20041;-78
2021/03/27 11:18:12;;;;;;;3.33;1.55;;;7.80;92.30;;;;;;5041790;28;20033;-78
2021/03/27 11:20:49;;;;;;;8.30;2.17;;;7.80;92.30;;;;;;5025293;28;20036;-79
2021/03/27 11:23:44;;;;;;;6.05;2.85;;;7.90;92.10;;;;;;5055601;28;20040;-79
2021/03/27 11:26:13;;;;;;;5.15;1.73;;;8.00;92.50;;;;;;5030807;28;20044;-79
2021/03/27 11:28:50;;;;;;;7.50;1.60;;;8.20;92.60;;;;;;5051955;28;20155;-78
2021/03/27 11:31:18;;;;;;;7.03;1.95;;;8.50;92.40;;;;;;5041150;28;20037;-78
2021/03/27 11:34:22;;;;;;;6.32;2.40;;;8.60;92.80;;;;;;5046538;28;20043;-79
2021/03/27 11:36:53;;;;;;;14.20;3.03;;;8.80;92.40;;;;;;4926487;28;20059;-79
2021/03/27 11:39:37;;;;;;;8.30;2.45;;;8.90;92.10;;;;;;4999716;28;20549;-78
2021/03/27 11:42:30;;;;;;;6.88;2.72;;;8.90;92.50;;;;;;5044216;28;20112;-78
2021/03/27 11:45:11;;;;;;;7.82;2.72;;;9.10;92.20;;;;;;5030513;28;20559;-78
2021/03/27 11:47:59;;;;;;;8.38;2.28;;;9.10;91.80;;;;;;5019110;28;20473;-78
2021/03/27 11:50:46;;;;;;;4.10;1.88;;;9.10;92.50;;;;;;5048835;28;20621;-78
2021/03/27 11:53:20;;;;;;;5.88;1.83;;;9.30;92.20;;;;;;5023731;28;20516;-78
2021/03/27 11:56:16;;;;;;;5.53;2.42;;;9.50;91.50;;;;;;5015525;28;20052;-78
2021/03/27 12:01:39;;;;;;;;;;;9.70;90.00;;;;;;5048099;28;20117;-79
2021/03/27 12:04:34;;;;;;;8.50;2.10;;;9.60;90.20;;;;;;5026659;28;20449;-79
2021/03/27 12:07:23;;;;;;;5.60;1.88;;;10.00;89.00;;;;;;5035953;28;20037;-79
2021/03/27 12:10:00;;;;;;;6.32;1.95;;;10.30;87.90;;;;;;5030782;28;20489;-78
2021/03/27 12:12:47;;;;;;;4.28;1.52;;;10.70;87.00;;;;;;5047331;28;20056;-78
2021/03/27 12:15:28;;;;;;;5.50;2.05;;;10.80;83.70;;;;;;5032878;28;20040;-77
2021/03/27 12:18:32;;;;;;;2.40;1.38;;;11.20;82.60;;;;;;5022560;28;20136;-78
2021/03/27 12:21:11;;;;;;;7.78;1.63;;;11.30;82.10;;;;;;4346000;28;9999951;-78
2021/03/27 12:23:42;;;;;;;9.45;2.00;;;11.40;82.90;;;;;;5026809;28;20026;-77
2021/03/27 12:26:31;;;;;;;8.50;1.85;;;11.40;83.40;;;;;;5024359;28;20466;-77
2021/03/27 12:29:03;;;;;;;9.35;2.03;;;11.70;80.60;;;;;;5042337;28;20732;-77
2021/03/27 12:32:06;;;;;;;4.38;2.10;;;12.00;81.60;;;;;;5015374;28;20477;-77
2021/03/27 12:34:37;;;;;;;3.15;1.90;;;12.00;78.00;;;;;;5043313;28;20074;-77
2021/03/27 12:37:09;;;;;;;5.32;1.42;;;12.20;77.90;;;;;;5012445;28;20413;-77
2021/03/27 12:39:55;;;;;;;7.28;1.80;;;12.30;73.40;;;;;;5036852;28;20029;-77
2021/03/27 12:42:42;;;;;;;3.85;1.08;;;12.40;74.00;;;;;;5012529;28;20029;-77
2021/03/27 12:45:20;;;;;;;3.17;1.17;;;12.40;73.30;;;;;;5042811;28;20048;-77
2021/03/27 12:48:17;;;;;;;6.00;1.38;;;12.20;72.60;;;;;;5048586;28;20068;-77
2021/03/27 12:51:04;;;;;;;4.43;1.83;;;12.10;72.20;;;;;;5040834;28;20086;-77
2021/03/27 12:53:58;;;;;;;2.45;1.25;;;11.90;69.90;;;;;;5053656;28;20032;-77
2021/03/27 12:56:34;;;;;;;8.90;1.63;;;11.90;72.70;;;;;;5063310;28;20067;-77
2021/03/27 12:59:12;;;;;;;6.88;1.67;;;11.60;71.80;;;;;;5036525;28;20037;-77
2021/03/27 13:02:04;;;;;;;2.90;1.20;;;11.50;70.40;;;;;;5008763;28;20087;-77
2021/03/27 13:04:54;;;;;;;3.10;1.33;;;11.60;68.60;;;;;;5039703;28;20383;-76
2021/03/27 13:07:38;;;;;;;1.80;0.95;;;11.70;68.90;;;;;;5054768;28;20041;-77
2021/03/27 13:10:07;;;;;;;3.75;1.48;;;11.80;69.00;;;;;;5036188;28;20076;-77
2021/03/27 13:12:51;;;;;;;6.88;1.50;;;11.80;69.60;;;;;;5058656;28;20389;-77
2021/03/27 13:15:28;;;;;;;2.83;0.88;;;11.90;68.70;;;;;;5025888;28;20157;-78
2021/03/27 13:17:59;;;;;;;4.13;1.38;;;11.90;67.50;;;;;;5052771;28;20035;-77
2021/03/27 13:20:58;;;;;;;5.93;0.93;;;12.00;69.90;;;;;;5051420;28;20051;-77
2021/03/27 13:23:30;;;;;;;3.13;0.70;;;12.00;65.50;;;;;;5041735;28;20090;-77
2021/03/27 13:25:57;;;;;;;4.60;1.33;;;12.00;66.60;;;;;;5013899;28;20045;-77
2021/03/27 13:28:52;;;;;;;7.75;1.55;;;11.90;69.70;;;;;;5026725;28;20095;-76
2021/03/27 13:31:19;;;;;;;5.00;1.17;;;11.80;69.20;;;;;;5058057;28;20064;-77
2021/03/27 13:33:46;;;;;;;8.18;0.73;;;11.90;62.30;;;;;;5030821;28;20407;-77
2021/03/27 13:36:18;;;;;;;4.57;0.88;;;12.10;61.70;;;;;;5059142;28;20128;-77
2021/03/27 13:38:53;;;;;;;6.18;1.30;;;12.30;58.80;;;;;;5032151;28;20123;-77
2021/03/27 13:41:37;;;;;;;3.33;0.70;;;12.30;58.20;;;;;;5034393;28;20135;-77
2021/03/27 13:44:24;;;;;;;2.30;0.70;;;12.30;60.10;;;;;;5044280;28;20117;-77
2021/03/27 13:46:59;;;;;;;2.47;1.17;;;12.30;59.90;;;;;;5051260;28;20037;-77
2021/03/27 13:49:27;;;;;;;8.50;0.82;;;12.50;58.00;;;;;;5042075;28;20071;-77
2021/03/27 13:51:53;;;;;;;6.50;0.90;;;12.30;61.30;;;;;;5018911;28;20035;-77
2021/03/27 13:54:53;;;;;;;2.60;0.80;;;12.30;61.20;;;;;;5036629;28;20480;-77
2021/03/27 13:57:33;;;;;;;3.40;0.65;;;12.30;60.60;;;;;;5055507;28;20039;-77
2021/03/27 14:00:18;;;;;;;3.63;1.05;;;12.80;59.20;;;;;;5029933;28;20078;-77
2021/03/27 14:03:02;;;;;;;4.30;1.73;;;13.10;56.90;;;;;;5049029;28;20561;-77
2021/03/27 14:05:42;;;;;;;4.93;0.70;;;13.20;54.50;;;;;;5012436;28;20105;-77
2021/03/27 14:08:37;;;;;;;4.95;0.82;;;13.20;54.60;;;;;;5040009;28;20084;-77
2021/03/27 14:11:09;;;;;;;6.07;0.73;;;13.00;55.50;;;;;;5048807;28;20183;-75
2021/03/27 14:13:36;;;;;;;2.97;0.50;;;12.70;56.40;;;;;;5046920;28;20040;-75
2021/03/27 14:16:18;;;;;;;1.23;0.40;;;12.50;57.80;;;;;;5049115;28;20120;-76
2021/03/27 14:19:18;;;;;;;1.55;0.22;;;12.50;57.60;;;;;;5068236;28;20055;-75